createdAt,value
2017-08-12T00:00:18.689Z,7.70
2017-08-12T00:02:46.210Z,7.10
2017-08-12T00:05:13.765Z,7.67
2017-08-12T00:07:41.281Z,7.77
2017-08-12T00:10:08.914Z,8.27
2017-08-12T00:12:36.466Z,7.10
2017-08-12T00:15:03.988Z,7.03
2017-08-12T00:17:31.538Z,7.87
2017-08-12T00:19:59.059Z,7.40
2017-08-12T00:22:26.604Z,7.33
2017-08-12T00:24:54.126Z,6.33
2017-08-12T00:27:21.692Z,7.80
2017-08-12T00:29:49.241Z,6.97
2017-08-12T00:32:16.810Z,6.97
2017-08-12T00:34:44.349Z,7.73
2017-08-12T00:37:11.901Z,6.67
2017-08-12T00:39:39.471Z,6.80
2017-08-12T00:42:06.997Z,7.10
2017-08-12T00:44:34.553Z,6.60
2017-08-12T00:47:02.081Z,7.87
2017-08-12T00:49:29.648Z,7.83
2017-08-12T00:51:57.169Z,7.30
2017-08-12T00:54:24.690Z,6.90
2017-08-12T00:56:52.264Z,7.10
2017-08-12T00:59:19.825Z,7.20
2017-08-12T01:01:47.395Z,7.10
2017-08-12T01:04:14.943Z,7.60
2017-08-12T01:06:42.505Z,6.17
2017-08-12T01:09:10.027Z,6.60
2017-08-12T01:11:37.559Z,7.40
2017-08-12T01:14:05.117Z,6.83
2017-08-12T01:16:32.636Z,6.87
2017-08-12T01:19:00.191Z,6.57
2017-08-12T01:21:27.714Z,6.67
2017-08-12T01:23:55.237Z,6.53
2017-08-12T01:26:22.806Z,6.00
2017-08-12T01:28:50.331Z,6.40
2017-08-12T01:31:17.916Z,6.63
2017-08-12T01:33:45.435Z,5.63
2017-08-12T01:36:12.971Z,6.83
2017-08-12T01:38:40.573Z,6.87
2017-08-12T01:41:08.103Z,5.90
2017-08-12T01:43:35.664Z,6.43
2017-08-12T01:46:03.227Z,6.13
2017-08-12T01:48:30.780Z,6.50
2017-08-12T01:50:58.306Z,6.10
2017-08-12T01:53:25.831Z,8.10
2017-08-12T01:55:53.388Z,5.10
2017-08-12T01:58:20.915Z,4.83
2017-08-12T02:00:48.472Z,5.90
2017-08-12T02:03:15.992Z,5.20
2017-08-12T02:05:43.571Z,5.97
2017-08-12T02:08:11.124Z,5.70
2017-08-12T02:10:38.638Z,5.67
2017-08-12T02:13:06.187Z,5.63
2017-08-12T02:15:33.702Z,6.23
2017-08-12T02:18:01.269Z,5.37
2017-08-12T02:20:28.800Z,6.07
2017-08-12T02:22:56.324Z,6.33
2017-08-12T02:25:23.950Z,5.60
2017-08-12T02:27:51.493Z,6.77
2017-08-12T02:30:19.079Z,6.57
2017-08-12T02:32:46.598Z,5.70
2017-08-12T02:35:14.113Z,5.30
2017-08-12T02:37:41.664Z,4.87
2017-08-12T02:40:09.188Z,6.23
2017-08-12T02:42:36.749Z,5.30
2017-08-12T02:45:04.315Z,5.33
2017-08-12T02:47:31.892Z,5.23
2017-08-12T02:49:59.464Z,5.27
2017-08-12T02:52:26.994Z,5.40
2017-08-12T02:54:54.548Z,5.27
2017-08-12T02:57:22.084Z,5.70
2017-08-12T02:59:49.635Z,4.80
2017-08-12T03:02:17.148Z,5.27
2017-08-12T03:04:44.692Z,4.80
2017-08-12T03:07:12.247Z,4.77
2017-08-12T03:09:39.806Z,4.40
2017-08-12T03:12:07.365Z,6.13
2017-08-12T03:14:34.882Z,5.10
2017-08-12T03:17:02.429Z,6.03
2017-08-12T03:19:29.941Z,5.00
2017-08-12T03:21:57.530Z,4.73
2017-08-12T03:24:25.061Z,4.87
2017-08-12T03:26:52.568Z,4.10
2017-08-12T03:29:20.123Z,4.57
2017-08-12T03:31:47.641Z,5.43
2017-08-12T03:34:15.197Z,4.37
2017-08-12T03:36:42.705Z,4.43
2017-08-12T03:39:10.263Z,4.30
2017-08-12T03:41:37.782Z,4.97
2017-08-12T03:44:05.370Z,5.67
2017-08-12T03:46:32.928Z,4.97
2017-08-12T03:49:00.445Z,4.67
2017-08-12T03:51:28.082Z,3.73
2017-08-12T03:53:55.604Z,5.03
2017-08-12T03:56:23.162Z,4.10
2017-08-12T03:58:50.677Z,4.50
2017-08-12T04:01:18.189Z,3.70
2017-08-12T04:03:45.770Z,4.73
2017-08-12T04:06:13.289Z,3.80
2017-08-12T04:08:40.802Z,4.87
2017-08-12T04:11:08.353Z,4.47
2017-08-12T04:13:35.875Z,3.37
2017-08-12T04:16:03.388Z,3.70
2017-08-12T04:18:30.946Z,4.10
2017-08-12T04:20:58.496Z,4.00
2017-08-12T04:23:26.058Z,3.43
2017-08-12T04:25:53.567Z,4.57
2017-08-12T04:28:21.079Z,3.50
2017-08-12T04:30:48.629Z,4.20
2017-08-12T04:33:16.137Z,3.50
2017-08-12T04:35:43.718Z,3.77
2017-08-12T04:38:11.259Z,4.13
2017-08-12T04:40:38.829Z,3.70
2017-08-12T04:43:06.345Z,3.60
2017-08-12T04:45:33.984Z,3.73
2017-08-12T04:48:01.496Z,3.70
2017-08-12T04:50:29.015Z,4.13
2017-08-12T04:52:56.586Z,4.23
2017-08-12T04:55:24.118Z,4.33
2017-08-12T04:57:51.674Z,4.07
2017-08-12T05:00:19.192Z,3.60
2017-08-12T05:02:46.744Z,3.50
2017-08-12T17:52:55.334Z,3.03
2017-08-12T17:55:22.865Z,3.30
2017-08-12T17:57:50.429Z,4.07
2017-08-12T18:00:20.318Z,2.90
2017-08-12T18:02:48.363Z,3.17
2017-08-12T18:05:16.853Z,3.40
2017-08-12T18:07:44.706Z,2.73
2017-08-12T18:10:13.233Z,3.37
2017-08-12T18:12:42.233Z,2.93
2017-08-12T18:15:11.490Z,2.63
2017-08-12T18:17:39.856Z,2.87
2017-08-12T18:20:08.181Z,2.80
2017-08-12T18:22:35.831Z,2.90
2017-08-12T18:25:03.774Z,2.73
2017-08-12T18:27:31.870Z,2.77
2017-08-12T18:30:00.015Z,2.80
2017-08-12T18:32:27.647Z,2.33
2017-08-12T18:34:55.368Z,2.40
2017-08-12T18:37:23.777Z,3.20
2017-08-12T18:39:51.586Z,2.00
2017-08-12T18:42:19.443Z,3.00
2017-08-12T18:44:47.493Z,3.00
2017-08-12T18:47:15.322Z,4.30
2017-08-12T18:49:42.849Z,3.50
2017-08-12T18:52:10.402Z,3.87
2017-08-12T18:54:37.929Z,4.33
2017-08-12T18:57:05.497Z,3.80
2017-08-12T18:59:33.431Z,3.10
2017-08-12T19:02:01.362Z,4.03
2017-08-12T19:04:29.452Z,4.20
2017-08-12T19:06:57.300Z,3.30
2017-08-12T19:09:25.674Z,4.20
2017-08-12T19:11:53.857Z,2.97
2017-08-12T19:14:21.702Z,4.25
2017-08-12T19:16:49.483Z,3.73
2017-08-12T19:19:20.426Z,3.20
2017-08-12T19:21:48.494Z,6.57
2017-08-12T19:24:16.876Z,4.13
2017-08-12T19:26:44.771Z,6.57
2017-08-12T19:29:12.608Z,4.90
2017-08-12T19:31:40.669Z,4.47
2017-08-12T19:34:08.330Z,5.30
2017-08-12T19:36:36.197Z,4.97
2017-08-12T19:39:04.054Z,6.60
2017-08-12T19:41:31.725Z,8.67
2017-08-12T19:43:59.795Z,7.70
2017-08-12T19:46:27.714Z,5.90
2017-08-12T19:48:55.360Z,7.23
2017-08-12T19:51:23.295Z,7.27
2017-08-12T19:53:51.369Z,7.10
